sensor_id;sensor_type;location;lat;lon;timestamp;pressure;altitude;pressure_sealevel;temperature;humidity
34921;BME280;21128;50.016;20.002;2022-07-01T00:01:49;98477.68;;;23.83;67.99
34921;BME280;21128;50.016;20.002;2022-07-01T00:04:16;98471.74;;;23.81;68.50
34921;BME280;21128;50.016;20.002;2022-07-01T00:06:43;98476.51;;;23.79;68.77
34921;BME280;21128;50.016;20.002;2022-07-01T00:09:10;98470.00;;;23.75;68.54
34921;BME280;21128;50.016;20.002;2022-07-01T00:11:36;98469.42;;;23.73;69.01
34921;BME280;21128;50.016;20.002;2022-07-01T00:14:03;98475.23;;;23.70;69.13
34921;BME280;21128;50.016;20.002;2022-07-01T00:16:30;98466.86;;;23.67;69.28
34921;BME280;21128;50.016;20.002;2022-07-01T00:18:57;98468.84;;;23.59;69.15
34921;BME280;21128;50.016;20.002;2022-07-01T00:21:24;98479.45;;;23.54;69.91
34921;BME280;21128;50.016;20.002;2022-07-01T00:23:51;98475.83;;;23.49;69.85
34921;BME280;21128;50.016;20.002;2022-07-01T00:26:17;98472.44;;;23.42;70.37
34921;BME280;21128;50.016;20.002;2022-07-01T00:28:44;98469.64;;;23.37;70.40
34921;BME280;21128;50.016;20.002;2022-07-01T00:31:11;98469.78;;;23.30;70.81
34921;BME280;21128;50.016;20.002;2022-07-01T00:33:38;98474.19;;;23.24;71.29
34921;BME280;21128;50.016;20.002;2022-07-01T00:36:05;98471.38;;;23.19;70.93
34921;BME280;21128;50.016;20.002;2022-07-01T00:38:32;98464.87;;;23.15;71.20
34921;BME280;21128;50.016;20.002;2022-07-01T00:40:59;98471.28;;;23.14;72.02
34921;BME280;21128;50.016;20.002;2022-07-01T00:43:27;98468.23;;;23.11;72.04
34921;BME280;21128;50.016;20.002;2022-07-01T00:45:53;98472.77;;;23.10;71.87
34921;BME280;21128;50.016;20.002;2022-07-01T00:48:21;98462.53;;;23.07;72.04
34921;BME280;21128;50.016;20.002;2022-07-01T00:50:50;98455.98;;;23.03;72.42
34921;BME280;21128;50.016;20.002;2022-07-01T00:53:18;98460.77;;;23.01;72.96
34921;BME280;21128;50.016;20.002;2022-07-01T00:55:45;98459.38;;;22.98;72.72
34921;BME280;21128;50.016;20.002;2022-07-01T00:58:12;98467.04;;;22.95;72.26
34921;BME280;21128;50.016;20.002;2022-07-01T01:00:39;98460.29;;;22.92;72.65
34921;BME280;21128;50.016;20.002;2022-07-01T01:03:06;98455.64;;;22.88;72.99
34921;BME280;21128;50.016;20.002;2022-07-01T01:05:38;98458.52;;;22.86;73.02
34921;BME280;21128;50.016;20.002;2022-07-01T01:08:08;98446.18;;;22.85;73.19
34921;BME280;21128;50.016;20.002;2022-07-01T01:10:37;98447.44;;;22.83;73.84
34921;BME280;21128;50.016;20.002;2022-07-01T01:13:05;98452.80;;;22.83;73.70
34921;BME280;21128;50.016;20.002;2022-07-01T01:15:32;98460.02;;;22.82;73.74
34921;BME280;21128;50.016;20.002;2022-07-01T01:17:59;98456.75;;;22.80;74.01
34921;BME280;21128;50.016;20.002;2022-07-01T01:22:58;98455.66;;;22.69;73.78
34921;BME280;21128;50.016;20.002;2022-07-01T01:25:25;98454.03;;;22.68;74.87
34921;BME280;21128;50.016;20.002;2022-07-01T01:27:52;98452.06;;;22.64;74.18
34921;BME280;21128;50.016;20.002;2022-07-01T01:30:19;98449.00;;;22.60;74.39
34921;BME280;21128;50.016;20.002;2022-07-01T01:32:45;98447.84;;;22.56;75.08
34921;BME280;21128;50.016;20.002;2022-07-01T01:35:13;98453.64;;;22.53;74.62
34921;BME280;21128;50.016;20.002;2022-07-01T01:37:40;98457.59;;;22.51;74.70
34921;BME280;21128;50.016;20.002;2022-07-01T01:40:07;98454.92;;;22.51;74.32
34921;BME280;21128;50.016;20.002;2022-07-01T01:42:37;98461.55;;;22.48;74.46
34921;BME280;21128;50.016;20.002;2022-07-01T01:45:05;98465.28;;;22.47;74.60
34921;BME280;21128;50.016;20.002;2022-07-01T01:47:32;98464.09;;;22.43;74.84
34921;BME280;21128;50.016;20.002;2022-07-01T01:49:59;98469.91;;;22.40;74.76
34921;BME280;21128;50.016;20.002;2022-07-01T01:52:26;98474.67;;;22.38;74.60
34921;BME280;21128;50.016;20.002;2022-07-01T01:54:52;98475.11;;;22.35;75.49
34921;BME280;21128;50.016;20.002;2022-07-01T01:57:19;98471.03;;;22.32;74.85
34921;BME280;21128;50.016;20.002;2022-07-01T01:59:46;98474.98;;;22.30;75.70
34921;BME280;21128;50.016;20.002;2022-07-01T02:02:13;98477.05;;;22.28;75.12
34921;BME280;21128;50.016;20.002;2022-07-01T02:04:40;98465.77;;;22.26;74.96
34921;BME280;21128;50.016;20.002;2022-07-01T02:07:07;98469.25;;;22.26;75.68
34921;BME280;21128;50.016;20.002;2022-07-01T02:09:34;98466.81;;;22.25;75.77
34921;BME280;21128;50.016;20.002;2022-07-01T02:12:01;98461.69;;;22.23;75.90
34921;BME280;21128;50.016;20.002;2022-07-01T02:14:28;98460.87;;;22.23;76.48
34921;BME280;21128;50.016;20.002;2022-07-01T02:16:54;98466.66;;;22.19;76.09
34921;BME280;21128;50.016;20.002;2022-07-01T02:19:21;98469.80;;;22.16;76.52
34921;BME280;21128;50.016;20.002;2022-07-01T02:21:48;98479.91;;;22.14;76.95
34921;BME280;21128;50.016;20.002;2022-07-01T02:24:18;98476.04;;;22.10;77.05
34921;BME280;21128;50.016;20.002;2022-07-01T02:26:45;98476.50;;;22.07;76.58
34921;BME280;21128;50.016;20.002;2022-07-01T02:29:12;98475.88;;;22.05;77.02
34921;BME280;21128;50.016;20.002;2022-07-01T02:31:42;98484.14;;;22.04;76.70
34921;BME280;21128;50.016;20.002;2022-07-01T02:34:09;98485.16;;;22.03;77.94
34921;BME280;21128;50.016;20.002;2022-07-01T02:36:35;98488.67;;;22.03;77.62
34921;BME280;21128;50.016;20.002;2022-07-01T02:39:02;98489.69;;;22.02;78.22
34921;BME280;21128;50.016;20.002;2022-07-01T02:41:29;98494.68;;;21.99;77.40
34921;BME280;21128;50.016;20.002;2022-07-01T02:43:57;98501.30;;;21.96;77.38
34921;BME280;21128;50.016;20.002;2022-07-01T02:46:27;98497.42;;;21.92;77.63
34921;BME280;21128;50.016;20.002;2022-07-01T02:48:53;98504.05;;;21.89;78.23
34921;BME280;21128;50.016;20.002;2022-07-01T02:51:20;98502.65;;;21.87;77.94
34921;BME280;21128;50.016;20.002;2022-07-01T02:53:47;98500.17;;;21.85;77.25
34921;BME280;21128;50.016;20.002;2022-07-01T02:56:14;98502.03;;;21.85;78.08
34921;BME280;21128;50.016;20.002;2022-07-01T02:58:40;98504.70;;;21.85;77.96
34921;BME280;21128;50.016;20.002;2022-07-01T03:01:07;98496.09;;;21.83;78.22
34921;BME280;21128;50.016;20.002;2022-07-01T03:03:34;98501.44;;;21.83;77.64
34921;BME280;21128;50.016;20.002;2022-07-01T03:06:01;98497.72;;;21.84;77.76
34921;BME280;21128;50.016;20.002;2022-07-01T03:08:27;98504.50;;;21.86;78.00
34921;BME280;21128;50.016;20.002;2022-07-01T03:10:54;98500.79;;;21.87;77.53
34921;BME280;21128;50.016;20.002;2022-07-01T03:13:21;98503.23;;;21.89;78.04
34921;BME280;21128;50.016;20.002;2022-07-01T03:15:48;98505.68;;;21.90;78.47
34921;BME280;21128;50.016;20.002;2022-07-01T03:18:14;98501.15;;;21.91;78.39
34921;BME280;21128;50.016;20.002;2022-07-01T03:20:44;98509.76;;;21.93;77.80
34921;BME280;21128;50.016;20.002;2022-07-01T03:23:11;98509.56;;;21.95;78.11
34921;BME280;21128;50.016;20.002;2022-07-01T03:25:38;98505.61;;;21.97;78.61
34921;BME280;21128;50.016;20.002;2022-07-01T03:28:05;98504.56;;;21.98;77.98
34921;BME280;21128;50.016;20.002;2022-07-01T03:30:32;98501.44;;;22.01;77.95
34921;BME280;21128;50.016;20.002;2022-07-01T03:32:59;98502.87;;;22.04;78.49
34921;BME280;21128;50.016;20.002;2022-07-01T03:35:26;98511.28;;;22.07;78.24
34921;BME280;21128;50.016;20.002;2022-07-01T03:38:03;98508.14;;;22.10;78.68
34921;BME280;21128;50.016;20.002;2022-07-01T03:40:31;98510.16;;;22.15;78.60
34921;BME280;21128;50.016;20.002;2022-07-01T03:43:01;98502.48;;;22.18;78.23
34921;BME280;21128;50.016;20.002;2022-07-01T03:45:28;98508.23;;;22.22;78.09
34921;BME280;21128;50.016;20.002;2022-07-01T03:47:55;98499.51;;;22.27;78.49
34921;BME280;21128;50.016;20.002;2022-07-01T03:50:23;98500.94;;;22.29;77.59
34921;BME280;21128;50.016;20.002;2022-07-01T03:52:51;98511.41;;;22.31;77.80
34921;BME280;21128;50.016;20.002;2022-07-01T03:55:37;98506.41;;;22.34;78.19
34921;BME280;21128;50.016;20.002;2022-07-01T03:58:05;98514.59;;;22.39;78.27
34921;BME280;21128;50.016;20.002;2022-07-01T04:00:37;98514.95;;;22.43;78.08
34921;BME280;21128;50.016;20.002;2022-07-01T04:03:05;98512.66;;;22.46;77.35
34921;BME280;21128;50.016;20.002;2022-07-01T04:05:33;98510.70;;;22.54;77.60
34921;BME280;21128;50.016;20.002;2022-07-01T04:08:05;98520.48;;;22.60;76.93
34921;BME280;21128;50.016;20.002;2022-07-01T04:10:33;98512.84;;;22.63;76.89
34921;BME280;21128;50.016;20.002;2022-07-01T04:13:01;98518.30;;;22.68;77.09
34921;BME280;21128;50.016;20.002;2022-07-01T04:15:28;98520.08;;;22.74;77.32
34921;BME280;21128;50.016;20.002;2022-07-01T04:17:55;98514.40;;;22.83;76.77
34921;BME280;21128;50.016;20.002;2022-07-01T04:20:25;98518.71;;;22.84;76.47
34921;BME280;21128;50.016;20.002;2022-07-01T04:22:52;98519.52;;;22.84;75.98
34921;BME280;21128;50.016;20.002;2022-07-01T04:25:18;98514.58;;;22.88;76.00
34921;BME280;21128;50.016;20.002;2022-07-01T04:27:45;98517.25;;;22.88;75.38
34921;BME280;21128;50.016;20.002;2022-07-01T04:30:12;98512.91;;;22.87;75.14
34921;BME280;21128;50.016;20.002;2022-07-01T04:32:39;98517.45;;;22.86;75.95
34921;BME280;21128;50.016;20.002;2022-07-01T04:35:06;98524.47;;;22.87;75.74
34921;BME280;21128;50.016;20.002;2022-07-01T04:37:33;98516.44;;;22.87;75.13
34921;BME280;21128;50.016;20.002;2022-07-01T04:40:06;98517.13;;;22.94;75.62
34921;BME280;21128;50.016;20.002;2022-07-01T04:42:38;98514.36;;;23.01;75.59
34921;BME280;21128;50.016;20.002;2022-07-01T04:45:05;98516.70;;;23.09;75.63
34921;BME280;21128;50.016;20.002;2022-07-01T04:47:34;98515.31;;;23.18;75.36
34921;BME280;21128;50.016;20.002;2022-07-01T04:50:00;98515.55;;;23.28;75.39
34921;BME280;21128;50.016;20.002;2022-07-01T04:52:28;98517.89;;;23.37;75.04
34921;BME280;21128;50.016;20.002;2022-07-01T04:54:55;98524.57;;;23.46;74.97
34921;BME280;21128;50.016;20.002;2022-07-01T04:57:22;98525.85;;;23.55;74.44
34921;BME280;21128;50.016;20.002;2022-07-01T04:59:48;98523.19;;;23.67;74.85
34921;BME280;21128;50.016;20.002;2022-07-01T05:02:15;98529.95;;;23.81;73.25
34921;BME280;21128;50.016;20.002;2022-07-01T05:04:42;98525.38;;;23.93;73.37
34921;BME280;21128;50.016;20.002;2022-07-01T05:07:09;98533.27;;;24.11;73.33
34921;BME280;21128;50.016;20.002;2022-07-01T05:09:55;98530.45;;;24.18;72.50
34921;BME280;21128;50.016;20.002;2022-07-01T05:12:23;98527.41;;;24.26;72.26
34921;BME280;21128;50.016;20.002;2022-07-01T05:14:50;98529.17;;;24.32;72.11
34921;BME280;21128;50.016;20.002;2022-07-01T05:17:17;98529.94;;;24.45;71.97
34921;BME280;21128;50.016;20.002;2022-07-01T05:19:44;98526.17;;;24.57;71.96
34921;BME280;21128;50.016;20.002;2022-07-01T05:22:29;98527.73;;;24.70;71.10
34921;BME280;21128;50.016;20.002;2022-07-01T05:24:56;98516.84;;;24.77;71.03
34921;BME280;21128;50.016;20.002;2022-07-01T05:27:23;98515.39;;;24.86;70.55
34921;BME280;21128;50.016;20.002;2022-07-01T05:29:51;98515.56;;;24.96;70.12
34921;BME280;21128;50.016;20.002;2022-07-01T05:32:20;98514.37;;;25.04;70.06
34921;BME280;21128;50.016;20.002;2022-07-01T05:34:47;98513.73;;;25.13;69.37
34921;BME280;21128;50.016;20.002;2022-07-01T05:37:13;98508.76;;;25.22;69.48
34921;BME280;21128;50.016;20.002;2022-07-01T05:39:43;98512.20;;;25.34;69.04
34921;BME280;21128;50.016;20.002;2022-07-01T05:42:10;98505.66;;;25.47;68.36
34921;BME280;21128;50.016;20.002;2022-07-01T05:44:37;98506.13;;;25.61;68.02
34921;BME280;21128;50.016;20.002;2022-07-01T05:47:03;98505.83;;;25.74;67.93
34921;BME280;21128;50.016;20.002;2022-07-01T05:49:30;98510.19;;;25.80;67.64
34921;BME280;21128;50.016;20.002;2022-07-01T05:51:57;98507.28;;;25.81;67.06
34921;BME280;21128;50.016;20.002;2022-07-01T05:54:24;98512.45;;;25.88;66.63
34921;BME280;21128;50.016;20.002;2022-07-01T05:56:51;98508.05;;;25.99;66.79
34921;BME280;21128;50.016;20.002;2022-07-01T05:59:17;98508.97;;;26.09;66.46
34921;BME280;21128;50.016;20.002;2022-07-01T06:01:44;98502.89;;;26.19;66.00
34921;BME280;21128;50.016;20.002;2022-07-01T06:04:12;98511.34;;;26.28;65.62
34921;BME280;21128;50.016;20.002;2022-07-01T06:06:39;98500.05;;;26.31;65.09
34921;BME280;21128;50.016;20.002;2022-07-01T06:09:05;98502.95;;;26.46;65.52
34921;BME280;21128;50.016;20.002;2022-07-01T06:11:32;98505.81;;;26.61;64.63
34921;BME280;21128;50.016;20.002;2022-07-01T06:13:59;98499.77;;;26.76;64.14
34921;BME280;21128;50.016;20.002;2022-07-01T06:16:26;98502.76;;;26.80;62.07
34921;BME280;21128;50.016;20.002;2022-07-01T06:18:52;98503.89;;;26.84;62.14
34921;BME280;21128;50.016;20.002;2022-07-01T06:21:20;98502.30;;;26.88;61.74
34921;BME280;21128;50.016;20.002;2022-07-01T06:23:46;98501.34;;;26.99;61.24
34921;BME280;21128;50.016;20.002;2022-07-01T06:26:13;98504.09;;;27.04;60.58
34921;BME280;21128;50.016;20.002;2022-07-01T06:28:41;98506.26;;;27.07;60.88
34921;BME280;21128;50.016;20.002;2022-07-01T06:31:08;98504.17;;;27.14;59.70
34921;BME280;21128;50.016;20.002;2022-07-01T06:33:35;98501.81;;;27.23;59.23
34921;BME280;21128;50.016;20.002;2022-07-01T06:36:02;98502.72;;;27.34;58.70
34921;BME280;21128;50.016;20.002;2022-07-01T06:38:29;98502.47;;;27.40;58.53
34921;BME280;21128;50.016;20.002;2022-07-01T06:40:56;98493.89;;;27.48;58.35
34921;BME280;21128;50.016;20.002;2022-07-01T06:43:42;98502.62;;;27.61;57.66
34921;BME280;21128;50.016;20.002;2022-07-01T06:46:09;98502.97;;;27.69;56.93
34921;BME280;21128;50.016;20.002;2022-07-01T06:48:36;98497.86;;;27.73;55.68
34921;BME280;21128;50.016;20.002;2022-07-01T06:51:03;98496.81;;;27.79;55.59
34921;BME280;21128;50.016;20.002;2022-07-01T06:53:30;98490.38;;;27.85;54.19
34921;BME280;21128;50.016;20.002;2022-07-01T06:55:57;98485.80;;;27.91;54.51
34921;BME280;21128;50.016;20.002;2022-07-01T06:58:24;98491.27;;;28.01;54.07
34921;BME280;21128;50.016;20.002;2022-07-01T07:00:51;98486.41;;;28.08;53.83
34921;BME280;21128;50.016;20.002;2022-07-01T07:03:18;98487.52;;;28.12;53.80
34921;BME280;21128;50.016;20.002;2022-07-01T07:05:45;98492.14;;;28.17;53.10
34921;BME280;21128;50.016;20.002;2022-07-01T07:08:11;98494.03;;;28.21;53.16
34921;BME280;21128;50.016;20.002;2022-07-01T07:10:38;98492.95;;;28.22;53.16
34921;BME280;21128;50.016;20.002;2022-07-01T07:13:05;98498.14;;;28.29;53.54
34921;BME280;21128;50.016;20.002;2022-07-01T07:15:32;98500.88;;;28.34;53.32
34921;BME280;21128;50.016;20.002;2022-07-01T07:17:59;98497.92;;;28.46;53.57
34921;BME280;21128;50.016;20.002;2022-07-01T07:20:26;98498.77;;;28.62;53.73
34921;BME280;21128;50.016;20.002;2022-07-01T07:22:54;98501.22;;;28.73;53.85
34921;BME280;21128;50.016;20.002;2022-07-01T07:25:20;98493.40;;;28.87;53.36
34921;BME280;21128;50.016;20.002;2022-07-01T07:27:47;98497.77;;;28.93;52.67
34921;BME280;21128;50.016;20.002;2022-07-01T07:30:14;98498.03;;;28.97;52.45
34921;BME280;21128;50.016;20.002;2022-07-01T07:32:42;98490.45;;;28.99;52.25
34921;BME280;21128;50.016;20.002;2022-07-01T07:35:10;98496.95;;;29.03;52.11
34921;BME280;21128;50.016;20.002;2022-07-01T07:37:37;98493.99;;;29.09;52.13
34921;BME280;21128;50.016;20.002;2022-07-01T07:40:05;98496.69;;;29.20;52.04
34921;BME280;21128;50.016;20.002;2022-07-01T07:42:34;98500.47;;;29.29;51.79
34921;BME280;21128;50.016;20.002;2022-07-01T07:45:01;98504.50;;;29.41;51.91
34921;BME280;21128;50.016;20.002;2022-07-01T07:47:28;98505.59;;;29.56;51.74
34921;BME280;21128;50.016;20.002;2022-07-01T07:49:56;98503.67;;;29.71;51.39
34921;BME280;21128;50.016;20.002;2022-07-01T07:52:23;98509.59;;;29.84;51.15
34921;BME280;21128;50.016;20.002;2022-07-01T07:54:50;98501.70;;;29.92;50.18
34921;BME280;21128;50.016;20.002;2022-07-01T07:57:16;98506.83;;;29.99;50.52
34921;BME280;21128;50.016;20.002;2022-07-01T07:59:43;98505.45;;;30.07;49.84
34921;BME280;21128;50.016;20.002;2022-07-01T08:02:10;98506.00;;;30.14;49.69
34921;BME280;21128;50.016;20.002;2022-07-01T08:04:37;98503.82;;;30.16;49.28
34921;BME280;21128;50.016;20.002;2022-07-01T08:07:04;98507.03;;;30.28;49.47
34921;BME280;21128;50.016;20.002;2022-07-01T08:09:31;98505.36;;;30.37;49.00
34921;BME280;21128;50.016;20.002;2022-07-01T08:12:02;98495.83;;;30.45;48.67
34921;BME280;21128;50.016;20.002;2022-07-01T08:14:29;98504.71;;;30.55;48.63
34921;BME280;21128;50.016;20.002;2022-07-01T08:16:56;98504.66;;;30.71;48.37
34921;BME280;21128;50.016;20.002;2022-07-01T08:19:23;98511.91;;;30.80;48.24
34921;BME280;21128;50.016;20.002;2022-07-01T08:21:51;98509.89;;;30.96;48.29
34921;BME280;21128;50.016;20.002;2022-07-01T08:24:18;98501.64;;;31.12;47.99
34921;BME280;21128;50.016;20.002;2022-07-01T08:26:46;98490.66;;;31.27;47.21
34921;BME280;21128;50.016;20.002;2022-07-01T08:29:13;98497.16;;;31.31;47.32
34921;BME280;21128;50.016;20.002;2022-07-01T08:31:40;98492.20;;;31.38;46.31
34921;BME280;21128;50.016;20.002;2022-07-01T08:34:07;98493.53;;;31.41;46.31
34921;BME280;21128;50.016;20.002;2022-07-01T08:36:35;98496.91;;;31.56;46.17
34921;BME280;21128;50.016;20.002;2022-07-01T08:39:03;98483.17;;;31.72;45.33
34921;BME280;21128;50.016;20.002;2022-07-01T08:41:30;98484.19;;;31.81;45.67
34921;BME280;21128;50.016;20.002;2022-07-01T08:43:57;98486.95;;;32.00;45.45
34921;BME280;21128;50.016;20.002;2022-07-01T08:46:27;98481.16;;;32.06;44.26
34921;BME280;21128;50.016;20.002;2022-07-01T08:48:54;98489.18;;;32.16;44.09
34921;BME280;21128;50.016;20.002;2022-07-01T08:51:20;98482.50;;;32.28;43.72
34921;BME280;21128;50.016;20.002;2022-07-01T08:53:47;98484.23;;;32.42;43.50
34921;BME280;21128;50.016;20.002;2022-07-01T08:56:14;98476.31;;;32.65;43.29
34921;BME280;21128;50.016;20.002;2022-07-01T08:59:00;98476.82;;;32.86;42.07
34921;BME280;21128;50.016;20.002;2022-07-01T09:01:27;98477.69;;;33.00;42.34
34921;BME280;21128;50.016;20.002;2022-07-01T09:03:56;98474.03;;;33.23;42.38
34921;BME280;21128;50.016;20.002;2022-07-01T09:06:26;98471.38;;;33.51;42.13
34921;BME280;21128;50.016;20.002;2022-07-01T09:08:55;98479.77;;;33.68;40.97
34921;BME280;21128;50.016;20.002;2022-07-01T09:11:36;98474.64;;;33.80;40.98
34921;BME280;21128;50.016;20.002;2022-07-01T09:14:16;98477.78;;;34.01;40.64
34921;BME280;21128;50.016;20.002;2022-07-01T09:16:50;98476.66;;;34.16;39.61
34921;BME280;21128;50.016;20.002;2022-07-01T09:19:19;98470.31;;;34.07;39.77
34921;BME280;21128;50.016;20.002;2022-07-01T09:22:00;98476.44;;;34.26;39.95
34921;BME280;21128;50.016;20.002;2022-07-01T09:24:36;98481.25;;;34.57;39.88
34921;BME280;21128;50.016;20.002;2022-07-01T09:27:06;98471.83;;;34.85;39.26
34921;BME280;21128;50.016;20.002;2022-07-01T09:32:12;98470.97;;;35.43;38.22
34921;BME280;21128;50.016;20.002;2022-07-01T09:34:44;98465.92;;;35.37;36.89
34921;BME280;21128;50.016;20.002;2022-07-01T09:37:12;98468.16;;;35.35;36.64
34921;BME280;21128;50.016;20.002;2022-07-01T09:39:51;98471.66;;;35.26;36.34
34921;BME280;21128;50.016;20.002;2022-07-01T09:42:19;98469.36;;;35.20;36.58
34921;BME280;21128;50.016;20.002;2022-07-01T09:45:00;98470.16;;;35.43;36.67
34921;BME280;21128;50.016;20.002;2022-07-01T09:47:30;98470.98;;;35.83;36.78
34921;BME280;21128;50.016;20.002;2022-07-01T09:49:57;98472.32;;;35.94;35.84
34921;BME280;21128;50.016;20.002;2022-07-01T09:52:24;98458.20;;;36.09;35.78
34921;BME280;21128;50.016;20.002;2022-07-01T09:54:52;98457.30;;;36.40;35.73
34921;BME280;21128;50.016;20.002;2022-07-01T09:57:20;98458.76;;;36.55;34.85
34921;BME280;21128;50.016;20.002;2022-07-01T09:59:48;98454.27;;;36.68;33.83
34921;BME280;21128;50.016;20.002;2022-07-01T10:02:20;98452.14;;;36.82;33.96
34921;BME280;21128;50.016;20.002;2022-07-01T10:04:48;98453.11;;;37.03;33.86
34921;BME280;21128;50.016;20.002;2022-07-01T10:09:56;98455.79;;;37.38;32.38
34921;BME280;21128;50.016;20.002;2022-07-01T10:12:34;98452.64;;;37.57;32.68
34921;BME280;21128;50.016;20.002;2022-07-01T10:15:02;98452.14;;;37.63;32.32
34921;BME280;21128;50.016;20.002;2022-07-01T10:17:41;98442.14;;;37.67;31.88
34921;BME280;21128;50.016;20.002;2022-07-01T10:20:28;98448.22;;;37.73;31.64
34921;BME280;21128;50.016;20.002;2022-07-01T10:23:07;98444.19;;;37.79;31.27
34921;BME280;21128;50.016;20.002;2022-07-01T10:25:44;98441.55;;;37.53;31.47
34921;BME280;21128;50.016;20.002;2022-07-01T10:31:06;98432.36;;;36.68;31.27
34921;BME280;21128;50.016;20.002;2022-07-01T10:33:41;98431.72;;;36.36;31.86
34921;BME280;21128;50.016;20.002;2022-07-01T10:39:07;98425.22;;;35.26;33.64
34921;BME280;21128;50.016;20.002;2022-07-01T10:44:10;98427.66;;;34.25;35.31
34921;BME280;21128;50.016;20.002;2022-07-01T10:46:42;98433.18;;;33.97;35.94
34921;BME280;21128;50.016;20.002;2022-07-01T10:49:19;98432.25;;;34.02;36.06
34921;BME280;21128;50.016;20.002;2022-07-01T11:02:35;98421.28;;;35.10;34.17
34921;BME280;21128;50.016;20.002;2022-07-01T11:07:34;98415.83;;;35.10;34.45
34921;BME280;21128;50.016;20.002;2022-07-01T11:10:03;98416.14;;;35.40;34.19
34921;BME280;21128;50.016;20.002;2022-07-01T11:12:31;98414.17;;;35.71;33.09
34921;BME280;21128;50.016;20.002;2022-07-01T11:14:59;98420.86;;;35.96;33.40
34921;BME280;21128;50.016;20.002;2022-07-01T11:17:28;98418.95;;;36.23;32.61
34921;BME280;21128;50.016;20.002;2022-07-01T11:19:57;98412.89;;;36.52;32.16
34921;BME280;21128;50.016;20.002;2022-07-01T11:22:27;98408.70;;;36.54;32.40
34921;BME280;21128;50.016;20.002;2022-07-01T11:24:56;98412.23;;;36.55;31.59
34921;BME280;21128;50.016;20.002;2022-07-01T11:27:24;98405.81;;;36.51;31.69
34921;BME280;21128;50.016;20.002;2022-07-01T11:29:59;98405.47;;;36.70;31.73
34921;BME280;21128;50.016;20.002;2022-07-01T11:32:29;98400.80;;;36.87;31.74
34921;BME280;21128;50.016;20.002;2022-07-01T11:34:57;98391.12;;;36.90;31.47
34921;BME280;21128;50.016;20.002;2022-07-01T11:37:27;98402.88;;;36.90;31.12
34921;BME280;21128;50.016;20.002;2022-07-01T11:40:15;98398.72;;;36.84;31.26
34921;BME280;21128;50.016;20.002;2022-07-01T11:42:43;98394.52;;;36.87;30.68
34921;BME280;21128;50.016;20.002;2022-07-01T11:45:22;98397.92;;;36.84;31.18
34921;BME280;21128;50.016;20.002;2022-07-01T11:47:50;98405.31;;;36.75;30.97
34921;BME280;21128;50.016;20.002;2022-07-01T11:50:17;98397.76;;;36.46;30.77
34921;BME280;21128;50.016;20.002;2022-07-01T11:52:44;98389.41;;;36.42;30.80
34921;BME280;21128;50.016;20.002;2022-07-01T11:55:11;98392.11;;;36.25;30.76
34921;BME280;21128;50.016;20.002;2022-07-01T11:57:38;98390.78;;;35.96;30.79
34921;BME280;21128;50.016;20.002;2022-07-01T12:00:10;98391.52;;;35.79;30.77
34921;BME280;21128;50.016;20.002;2022-07-01T12:02:38;98392.63;;;35.70;31.35
34921;BME280;21128;50.016;20.002;2022-07-01T12:05:06;98397.14;;;35.66;31.55
34921;BME280;21128;50.016;20.002;2022-07-01T12:07:33;98390.20;;;35.60;30.94
34921;BME280;21128;50.016;20.002;2022-07-01T12:10:00;98389.50;;;35.45;31.40
34921;BME280;21128;50.016;20.002;2022-07-01T12:12:30;98383.78;;;35.73;31.43
34921;BME280;21128;50.016;20.002;2022-07-01T12:14:58;98381.17;;;36.16;30.88
34921;BME280;21128;50.016;20.002;2022-07-01T12:17:27;98376.67;;;36.46;31.05
34921;BME280;21128;50.016;20.002;2022-07-01T12:19:54;98379.51;;;37.02;30.98
34921;BME280;21128;50.016;20.002;2022-07-01T12:22:25;98380.38;;;37.32;29.62
34921;BME280;21128;50.016;20.002;2022-07-01T12:25:08;98378.98;;;37.55;29.54
34921;BME280;21128;50.016;20.002;2022-07-01T12:27:36;98373.78;;;37.92;29.61
34921;BME280;21128;50.016;20.002;2022-07-01T12:30:06;98375.30;;;38.31;29.19
34921;BME280;21128;50.016;20.002;2022-07-01T12:32:36;98367.70;;;38.49;29.07
34921;BME280;21128;50.016;20.002;2022-07-01T12:35:08;98367.08;;;38.64;28.64
34921;BME280;21128;50.016;20.002;2022-07-01T12:37:54;98368.67;;;38.65;27.78
34921;BME280;21128;50.016;20.002;2022-07-01T12:40:22;98371.08;;;38.67;27.99
34921;BME280;21128;50.016;20.002;2022-07-01T12:42:50;98362.58;;;38.80;27.85
34921;BME280;21128;50.016;20.002;2022-07-01T12:45:23;98356.20;;;39.01;27.50
34921;BME280;21128;50.016;20.002;2022-07-01T12:47:52;98367.63;;;38.91;27.10
34921;BME280;21128;50.016;20.002;2022-07-01T12:53:06;98359.69;;;39.34;27.08
34921;BME280;21128;50.016;20.002;2022-07-01T12:55:41;98355.46;;;39.49;26.75
34921;BME280;21128;50.016;20.002;2022-07-01T12:58:17;98355.47;;;39.74;26.34
34921;BME280;21128;50.016;20.002;2022-07-01T13:00:46;98344.56;;;39.77;26.47
34921;BME280;21128;50.016;20.002;2022-07-01T13:03:14;98366.41;;;40.10;26.05
34921;BME280;21128;50.016;20.002;2022-07-01T13:05:44;98358.06;;;40.07;25.01
34921;BME280;21128;50.016;20.002;2022-07-01T13:08:11;98365.16;;;40.08;25.47
34921;BME280;21128;50.016;20.002;2022-07-01T13:10:38;98361.39;;;40.40;25.44
34921;BME280;21128;50.016;20.002;2022-07-01T13:13:05;98364.86;;;40.65;25.46
34921;BME280;21128;50.016;20.002;2022-07-01T13:15:32;98362.58;;;40.83;25.01
34921;BME280;21128;50.016;20.002;2022-07-01T13:17:59;98365.92;;;41.04;24.60
34921;BME280;21128;50.016;20.002;2022-07-01T13:20:27;98363.17;;;41.04;24.80
34921;BME280;21128;50.016;20.002;2022-07-01T13:22:57;98363.61;;;41.06;24.43
34921;BME280;21128;50.016;20.002;2022-07-01T13:25:24;98368.14;;;41.15;24.28
34921;BME280;21128;50.016;20.002;2022-07-01T13:27:50;98364.48;;;41.26;23.97
34921;BME280;21128;50.016;20.002;2022-07-01T13:30:18;98370.13;;;41.30;24.01